sensor_id;sensor_type;location;lat;lon;timestamp;P1;durP1;ratioP1;P2;durP2;ratioP2
21507;SDS011;10915;54.352;9.074;2022-12-08T00:02:12;15.07;;;11.00;;
21507;SDS011;10915;54.352;9.074;2022-12-08T00:04:38;12.63;;;10.00;;
21507;SDS011;10915;54.352;9.074;2022-12-08T00:07:24;13.50;;;10.00;;
21507;SDS011;10915;54.352;9.074;2022-12-08T00:10:08;14.20;;;9.53;;
21507;SDS011;10915;54.352;9.074;2022-12-08T00:12:34;15.57;;;10.23;;
21507;SDS011;10915;54.352;9.074;2022-12-08T00:14:59;15.27;;;10.60;;
21507;SDS011;10915;54.352;9.074;2022-12-08T00:17:26;11.40;;;8.77;;
21507;SDS011;10915;54.352;9.074;2022-12-08T00:19:52;11.73;;;9.03;;
21507;SDS011;10915;54.352;9.074;2022-12-08T00:22:17;11.90;;;8.17;;
21507;SDS011;10915;54.352;9.074;2022-12-08T00:24:43;11.80;;;8.70;;
21507;SDS011;10915;54.352;9.074;2022-12-08T00:27:10;14.13;;;9.27;;
21507;SDS011;10915;54.352;9.074;2022-12-08T00:29:38;11.77;;;7.93;;
21507;SDS011;10915;54.352;9.074;2022-12-08T00:32:04;12.07;;;7.47;;
21507;SDS011;10915;54.352;9.074;2022-12-08T00:34:30;11.00;;;7.47;;
21507;SDS011;10915;54.352;9.074;2022-12-08T00:36:56;9.20;;;6.37;;
21507;SDS011;10915;54.352;9.074;2022-12-08T00:39:22;12.67;;;6.80;;
21507;SDS011;10915;54.352;9.074;2022-12-08T00:41:47;12.07;;;7.90;;
21507;SDS011;10915;54.352;9.074;2022-12-08T00:44:33;25.13;;;14.73;;
21507;SDS011;10915;54.352;9.074;2022-12-08T00:46:58;16.90;;;11.80;;
21507;SDS011;10915;54.352;9.074;2022-12-08T00:49:25;15.13;;;11.63;;
21507;SDS011;10915;54.352;9.074;2022-12-08T00:51:50;21.47;;;13.17;;
21507;SDS011;10915;54.352;9.074;2022-12-08T00:54:16;12.67;;;9.83;;
21507;SDS011;10915;54.352;9.074;2022-12-08T00:56:42;13.27;;;9.37;;
21507;SDS011;10915;54.352;9.074;2022-12-08T00:59:08;14.57;;;10.23;;
21507;SDS011;10915;54.352;9.074;2022-12-08T01:01:34;12.63;;;8.40;;
21507;SDS011;10915;54.352;9.074;2022-12-08T01:04:04;19.20;;;12.33;;
21507;SDS011;10915;54.352;9.074;2022-12-08T01:06:36;32.83;;;15.10;;
21507;SDS011;10915;54.352;9.074;2022-12-08T01:09:03;31.90;;;14.53;;
21507;SDS011;10915;54.352;9.074;2022-12-08T01:11:29;39.67;;;15.50;;
21507;SDS011;10915;54.352;9.074;2022-12-08T01:13:55;38.33;;;16.03;;
21507;SDS011;10915;54.352;9.074;2022-12-08T01:16:25;42.00;;;19.27;;
21507;SDS011;10915;54.352;9.074;2022-12-08T01:18:54;14.50;;;10.80;;
21507;SDS011;10915;54.352;9.074;2022-12-08T01:21:21;17.10;;;11.37;;
21507;SDS011;10915;54.352;9.074;2022-12-08T01:23:47;17.70;;;12.47;;
21507;SDS011;10915;54.352;9.074;2022-12-08T01:26:14;54.00;;;19.83;;
21507;SDS011;10915;54.352;9.074;2022-12-08T01:28:41;83.00;;;23.97;;
21507;SDS011;10915;54.352;9.074;2022-12-08T01:31:11;88.63;;;26.47;;
21507;SDS011;10915;54.352;9.074;2022-12-08T01:33:39;56.40;;;21.67;;
21507;SDS011;10915;54.352;9.074;2022-12-08T01:36:06;46.70;;;21.60;;
21507;SDS011;10915;54.352;9.074;2022-12-08T01:38:32;25.70;;;16.23;;
21507;SDS011;10915;54.352;9.074;2022-12-08T01:40:58;31.23;;;18.03;;
21507;SDS011;10915;54.352;9.074;2022-12-08T01:43:24;91.30;;;28.03;;
21507;SDS011;10915;54.352;9.074;2022-12-08T01:46:09;100.23;;;27.80;;
21507;SDS011;10915;54.352;9.074;2022-12-08T01:48:35;66.23;;;23.97;;
21507;SDS011;10915;54.352;9.074;2022-12-08T01:51:00;67.00;;;25.87;;
21507;SDS011;10915;54.352;9.074;2022-12-08T01:53:27;58.73;;;25.37;;
21507;SDS011;10915;54.352;9.074;2022-12-08T01:55:58;34.70;;;19.90;;
21507;SDS011;10915;54.352;9.074;2022-12-08T01:58:27;55.47;;;23.23;;
21507;SDS011;10915;54.352;9.074;2022-12-08T02:01:00;62.63;;;24.50;;
21507;SDS011;10915;54.352;9.074;2022-12-08T02:03:37;63.53;;;27.23;;
21507;SDS011;10915;54.352;9.074;2022-12-08T02:06:08;46.20;;;24.00;;
21507;SDS011;10915;54.352;9.074;2022-12-08T02:08:35;46.23;;;24.20;;
21507;SDS011;10915;54.352;9.074;2022-12-08T02:11:05;68.40;;;28.70;;
21507;SDS011;10915;54.352;9.074;2022-12-08T02:13:34;41.57;;;22.30;;
21507;SDS011;10915;54.352;9.074;2022-12-08T02:41:44;89.87;;;33.30;;
21507;SDS011;10915;54.352;9.074;2022-12-08T02:44:16;98.63;;;34.80;;
21507;SDS011;10915;54.352;9.074;2022-12-08T02:46:51;170.50;;;38.80;;
21507;SDS011;10915;54.352;9.074;2022-12-08T02:49:26;202.17;;;44.73;;
21507;SDS011;10915;54.352;9.074;2022-12-08T02:52:56;130.33;;;37.70;;
21507;SDS011;10915;54.352;9.074;2022-12-08T02:54:55;135.17;;;38.43;;
21507;SDS011;10915;54.352;9.074;2022-12-08T03:00:20;275.13;;;52.03;;
21507;SDS011;10915;54.352;9.074;2022-12-08T03:14:09;342.67;;;60.47;;
21507;SDS011;10915;54.352;9.074;2022-12-08T03:16:17;365.57;;;69.83;;
21507;SDS011;10915;54.352;9.074;2022-12-08T03:18:48;351.20;;;62.47;;
21507;SDS011;10915;54.352;9.074;2022-12-08T03:21:18;461.73;;;75.03;;
21507;SDS011;10915;54.352;9.074;2022-12-08T03:23:45;307.77;;;68.73;;
21507;SDS011;10915;54.352;9.074;2022-12-08T03:26:27;464.00;;;83.80;;
21507;SDS011;10915;54.352;9.074;2022-12-08T03:28:58;608.03;;;95.30;;
21507;SDS011;10915;54.352;9.074;2022-12-08T03:31:27;527.23;;;101.23;;
21507;SDS011;10915;54.352;9.074;2022-12-08T03:33:55;469.07;;;91.57;;
21507;SDS011;10915;54.352;9.074;2022-12-08T03:36:26;510.33;;;95.13;;
21507;SDS011;10915;54.352;9.074;2022-12-08T03:38:57;405.70;;;81.50;;
21507;SDS011;10915;54.352;9.074;2022-12-08T03:41:27;524.77;;;99.43;;
21507;SDS011;10915;54.352;9.074;2022-12-08T03:43:56;654.37;;;113.47;;
21507;SDS011;10915;54.352;9.074;2022-12-08T03:46:27;468.90;;;90.63;;
21507;SDS011;10915;54.352;9.074;2022-12-08T03:48:56;566.73;;;100.40;;
21507;SDS011;10915;54.352;9.074;2022-12-08T03:51:23;612.70;;;109.50;;
21507;SDS011;10915;54.352;9.074;2022-12-08T03:53:51;761.37;;;128.60;;
21507;SDS011;10915;54.352;9.074;2022-12-08T03:56:26;509.23;;;106.30;;
21507;SDS011;10915;54.352;9.074;2022-12-08T03:58:54;483.90;;;101.27;;
21507;SDS011;10915;54.352;9.074;2022-12-08T04:01:20;472.33;;;100.90;;
21507;SDS011;10915;54.352;9.074;2022-12-08T04:03:46;360.40;;;85.33;;
21507;SDS011;10915;54.352;9.074;2022-12-08T04:06:16;352.90;;;77.83;;
21507;SDS011;10915;54.352;9.074;2022-12-08T04:08:53;329.13;;;78.60;;
21507;SDS011;10915;54.352;9.074;2022-12-08T04:11:19;167.13;;;58.77;;
21507;SDS011;10915;54.352;9.074;2022-12-08T04:13:45;195.20;;;63.60;;
21507;SDS011;10915;54.352;9.074;2022-12-08T04:16:18;176.70;;;61.03;;
21507;SDS011;10915;54.352;9.074;2022-12-08T04:18:46;212.53;;;66.77;;
21507;SDS011;10915;54.352;9.074;2022-12-08T04:21:12;155.13;;;56.63;;
21507;SDS011;10915;54.352;9.074;2022-12-08T04:23:38;133.93;;;50.20;;
21507;SDS011;10915;54.352;9.074;2022-12-08T04:26:03;175.50;;;54.80;;
21507;SDS011;10915;54.352;9.074;2022-12-08T04:28:29;198.03;;;54.43;;
21507;SDS011;10915;54.352;9.074;2022-12-08T04:30:55;169.90;;;50.83;;
21507;SDS011;10915;54.352;9.074;2022-12-08T04:33:24;167.83;;;45.33;;
21507;SDS011;10915;54.352;9.074;2022-12-08T04:35:50;152.70;;;42.27;;
21507;SDS011;10915;54.352;9.074;2022-12-08T04:38:16;121.60;;;36.30;;
21507;SDS011;10915;54.352;9.074;2022-12-08T04:40:42;97.60;;;32.67;;
21507;SDS011;10915;54.352;9.074;2022-12-08T04:43:07;78.77;;;30.23;;
21507;SDS011;10915;54.352;9.074;2022-12-08T04:45:37;85.87;;;30.23;;
21507;SDS011;10915;54.352;9.074;2022-12-08T04:48:13;71.53;;;28.57;;
21507;SDS011;10915;54.352;9.074;2022-12-08T04:50:52;88.77;;;31.53;;
21507;SDS011;10915;54.352;9.074;2022-12-08T04:53:18;87.90;;;33.57;;
21507;SDS011;10915;54.352;9.074;2022-12-08T04:55:45;87.70;;;32.47;;
21507;SDS011;10915;54.352;9.074;2022-12-08T04:58:13;90.77;;;32.87;;
21507;SDS011;10915;54.352;9.074;2022-12-08T05:00:40;98.47;;;33.17;;
21507;SDS011;10915;54.352;9.074;2022-12-08T05:03:09;86.53;;;32.10;;
21507;SDS011;10915;54.352;9.074;2022-12-08T05:05:35;104.17;;;33.93;;
21507;SDS011;10915;54.352;9.074;2022-12-08T05:08:01;185.70;;;40.93;;
21507;SDS011;10915;54.352;9.074;2022-12-08T05:10:30;132.77;;;38.20;;
21507;SDS011;10915;54.352;9.074;2022-12-08T05:13:05;87.93;;;31.43;;
21507;SDS011;10915;54.352;9.074;2022-12-08T05:15:38;86.33;;;28.37;;
21507;SDS011;10915;54.352;9.074;2022-12-08T05:18:29;97.27;;;35.00;;
21507;SDS011;10915;54.352;9.074;2022-12-08T05:20:58;102.97;;;37.53;;
21507;SDS011;10915;54.352;9.074;2022-12-08T05:23:29;110.20;;;38.00;;
21507;SDS011;10915;54.352;9.074;2022-12-08T05:25:58;129.80;;;41.30;;
21507;SDS011;10915;54.352;9.074;2022-12-08T05:28:26;103.57;;;37.53;;
21507;SDS011;10915;54.352;9.074;2022-12-08T05:30:54;99.60;;;37.87;;
21507;SDS011;10915;54.352;9.074;2022-12-08T05:33:21;96.37;;;39.40;;
21507;SDS011;10915;54.352;9.074;2022-12-08T05:36:04;91.18;;;37.88;;
21507;SDS011;10915;54.352;9.074;2022-12-08T05:38:34;88.27;;;35.97;;
21507;SDS011;10915;54.352;9.074;2022-12-08T05:41:00;108.23;;;40.57;;
21507;SDS011;10915;54.352;9.074;2022-12-08T05:43:26;119.50;;;40.63;;
21507;SDS011;10915;54.352;9.074;2022-12-08T05:45:56;135.97;;;41.10;;
21507;SDS011;10915;54.352;9.074;2022-12-08T05:48:22;152.70;;;41.57;;
21507;SDS011;10915;54.352;9.074;2022-12-08T05:50:48;189.90;;;48.50;;
21507;SDS011;10915;54.352;9.074;2022-12-08T05:53:18;226.63;;;50.70;;
21507;SDS011;10915;54.352;9.074;2022-12-08T05:55:45;178.93;;;46.90;;
21507;SDS011;10915;54.352;9.074;2022-12-08T05:58:15;241.70;;;51.77;;
21507;SDS011;10915;54.352;9.074;2022-12-08T06:00:45;170.07;;;47.10;;
21507;SDS011;10915;54.352;9.074;2022-12-08T06:03:16;155.87;;;43.17;;
21507;SDS011;10915;54.352;9.074;2022-12-08T06:05:51;146.07;;;42.43;;
21507;SDS011;10915;54.352;9.074;2022-12-08T06:08:20;158.57;;;43.60;;
21507;SDS011;10915;54.352;9.074;2022-12-08T06:10:48;181.90;;;49.43;;
21507;SDS011;10915;54.352;9.074;2022-12-08T06:13:20;116.87;;;38.43;;
21507;SDS011;10915;54.352;9.074;2022-12-08T06:15:52;115.00;;;38.67;;
21507;SDS011;10915;54.352;9.074;2022-12-08T06:18:24;237.63;;;48.07;;
21507;SDS011;10915;54.352;9.074;2022-12-08T06:21:00;135.13;;;41.90;;
21507;SDS011;10915;54.352;9.074;2022-12-08T06:23:47;123.40;;;39.20;;
21507;SDS011;10915;54.352;9.074;2022-12-08T06:30:43;109.43;;;39.00;;
21507;SDS011;10915;54.352;9.074;2022-12-08T06:36:36;155.97;;;43.87;;
21507;SDS011;10915;54.352;9.074;2022-12-08T06:39:02;108.17;;;38.47;;
21507;SDS011;10915;54.352;9.074;2022-12-08T06:41:28;134.10;;;42.00;;
21507;SDS011;10915;54.352;9.074;2022-12-08T06:43:56;140.27;;;41.13;;
21507;SDS011;10915;54.352;9.074;2022-12-08T06:46:22;119.83;;;36.83;;
21507;SDS011;10915;54.352;9.074;2022-12-08T06:48:48;193.60;;;47.35;;
21507;SDS011;10915;54.352;9.074;2022-12-08T06:51:19;197.65;;;47.38;;
21507;SDS011;10915;54.352;9.074;2022-12-08T06:53:46;76.80;;;31.03;;
21507;SDS011;10915;54.352;9.074;2022-12-08T06:56:12;88.67;;;31.60;;
21507;SDS011;10915;54.352;9.074;2022-12-08T06:58:39;74.07;;;28.93;;
21507;SDS011;10915;54.352;9.074;2022-12-08T07:01:10;81.73;;;29.93;;
21507;SDS011;10915;54.352;9.074;2022-12-08T07:03:37;76.37;;;29.23;;
21507;SDS011;10915;54.352;9.074;2022-12-08T07:06:03;84.20;;;29.93;;
21507;SDS011;10915;54.352;9.074;2022-12-08T07:08:30;101.30;;;34.37;;
21507;SDS011;10915;54.352;9.074;2022-12-08T07:10:57;81.43;;;29.53;;
21507;SDS011;10915;54.352;9.074;2022-12-08T07:13:22;81.47;;;30.27;;
21507;SDS011;10915;54.352;9.074;2022-12-08T07:15:48;92.70;;;32.13;;
21507;SDS011;10915;54.352;9.074;2022-12-08T07:18:14;99.28;;;34.80;;
21507;SDS011;10915;54.352;9.074;2022-12-08T07:20:39;104.03;;;33.47;;
21507;SDS011;10915;54.352;9.074;2022-12-08T07:23:05;95.60;;;32.33;;
21507;SDS011;10915;54.352;9.074;2022-12-08T07:25:31;81.70;;;29.67;;
21507;SDS011;10915;54.352;9.074;2022-12-08T07:27:56;81.37;;;28.80;;
21507;SDS011;10915;54.352;9.074;2022-12-08T07:30:22;168.97;;;36.57;;
21507;SDS011;10915;54.352;9.074;2022-12-08T07:32:48;213.60;;;38.70;;
21507;SDS011;10915;54.352;9.074;2022-12-08T07:35:13;270.87;;;46.13;;
21507;SDS011;10915;54.352;9.074;2022-12-08T07:37:39;316.83;;;45.90;;
21507;SDS011;10915;54.352;9.074;2022-12-08T07:40:06;352.93;;;49.83;;
21507;SDS011;10915;54.352;9.074;2022-12-08T07:42:33;229.23;;;39.67;;
21507;SDS011;10915;54.352;9.074;2022-12-08T07:44:58;207.63;;;41.50;;
21507;SDS011;10915;54.352;9.074;2022-12-08T07:47:24;183.50;;;38.10;;
21507;SDS011;10915;54.352;9.074;2022-12-08T07:49:50;148.97;;;38.03;;
21507;SDS011;10915;54.352;9.074;2022-12-08T07:52:16;225.30;;;42.03;;
21507;SDS011;10915;54.352;9.074;2022-12-08T07:54:41;132.93;;;35.47;;
21507;SDS011;10915;54.352;9.074;2022-12-08T07:57:07;110.50;;;34.30;;
21507;SDS011;10915;54.352;9.074;2022-12-08T07:59:33;127.63;;;37.23;;
21507;SDS011;10915;54.352;9.074;2022-12-08T08:01:59;105.43;;;34.97;;
21507;SDS011;10915;54.352;9.074;2022-12-08T08:04:25;109.70;;;34.23;;
21507;SDS011;10915;54.352;9.074;2022-12-08T08:06:51;121.37;;;36.90;;
21507;SDS011;10915;54.352;9.074;2022-12-08T08:09:16;117.73;;;35.67;;
21507;SDS011;10915;54.352;9.074;2022-12-08T08:11:42;102.33;;;31.63;;
21507;SDS011;10915;54.352;9.074;2022-12-08T08:14:08;107.93;;;34.07;;
21507;SDS011;10915;54.352;9.074;2022-12-08T08:16:33;105.63;;;33.93;;
21507;SDS011;10915;54.352;9.074;2022-12-08T08:18:59;102.67;;;35.23;;
21507;SDS011;10915;54.352;9.074;2022-12-08T08:21:24;108.07;;;34.40;;
21507;SDS011;10915;54.352;9.074;2022-12-08T08:23:50;141.37;;;39.40;;
21507;SDS011;10915;54.352;9.074;2022-12-08T08:26:16;128.43;;;38.63;;
21507;SDS011;10915;54.352;9.074;2022-12-08T08:28:41;158.53;;;40.03;;
21507;SDS011;10915;54.352;9.074;2022-12-08T08:31:09;137.73;;;39.30;;
21507;SDS011;10915;54.352;9.074;2022-12-08T08:33:36;109.53;;;35.63;;
21507;SDS011;10915;54.352;9.074;2022-12-08T08:36:05;85.77;;;31.90;;
21507;SDS011;10915;54.352;9.074;2022-12-08T08:38:35;93.73;;;32.13;;
21507;SDS011;10915;54.352;9.074;2022-12-08T08:41:07;86.57;;;32.40;;
21507;SDS011;10915;54.352;9.074;2022-12-08T08:43:34;90.57;;;32.53;;
21507;SDS011;10915;54.352;9.074;2022-12-08T08:46:00;88.43;;;31.80;;
21507;SDS011;10915;54.352;9.074;2022-12-08T08:48:29;84.83;;;31.67;;
21507;SDS011;10915;54.352;9.074;2022-12-08T08:50:56;90.53;;;31.57;;
21507;SDS011;10915;54.352;9.074;2022-12-08T08:53:22;65.17;;;27.83;;
21507;SDS011;10915;54.352;9.074;2022-12-08T08:55:49;72.33;;;29.07;;
21507;SDS011;10915;54.352;9.074;2022-12-08T08:58:15;59.50;;;26.67;;
21507;SDS011;10915;54.352;9.074;2022-12-08T09:00:41;54.10;;;27.27;;
21507;SDS011;10915;54.352;9.074;2022-12-08T09:03:08;59.13;;;27.67;;
21507;SDS011;10915;54.352;9.074;2022-12-08T09:05:36;57.23;;;27.70;;
21507;SDS011;10915;54.352;9.074;2022-12-08T09:08:03;47.40;;;27.10;;
21507;SDS011;10915;54.352;9.074;2022-12-08T09:10:29;43.40;;;24.57;;
21507;SDS011;10915;54.352;9.074;2022-12-08T09:12:56;49.80;;;26.00;;
21507;SDS011;10915;54.352;9.074;2022-12-08T09:15:22;49.50;;;25.70;;
21507;SDS011;10915;54.352;9.074;2022-12-08T09:17:47;49.70;;;26.57;;
21507;SDS011;10915;54.352;9.074;2022-12-08T09:20:13;53.97;;;28.03;;
21507;SDS011;10915;54.352;9.074;2022-12-08T09:22:39;53.03;;;26.73;;
21507;SDS011;10915;54.352;9.074;2022-12-08T09:25:05;62.10;;;29.90;;
21507;SDS011;10915;54.352;9.074;2022-12-08T09:27:30;62.13;;;29.70;;
21507;SDS011;10915;54.352;9.074;2022-12-08T09:29:56;80.87;;;33.20;;
21507;SDS011;10915;54.352;9.074;2022-12-08T09:32:22;95.67;;;36.00;;
21507;SDS011;10915;54.352;9.074;2022-12-08T09:34:47;128.10;;;39.23;;
21507;SDS011;10915;54.352;9.074;2022-12-08T09:37:13;100.90;;;35.83;;
21507;SDS011;10915;54.352;9.074;2022-12-08T09:39:39;83.20;;;30.00;;
21507;SDS011;10915;54.352;9.074;2022-12-08T09:42:04;99.50;;;33.57;;
21507;SDS011;10915;54.352;9.074;2022-12-08T09:50:00;111.53;;;35.30;;
21507;SDS011;10915;54.352;9.074;2022-12-08T09:52:53;112.83;;;34.33;;
21507;SDS011;10915;54.352;9.074;2022-12-08T09:55:40;106.50;;;31.10;;
21507;SDS011;10915;54.352;9.074;2022-12-08T09:58:18;87.67;;;29.87;;
21507;SDS011;10915;54.352;9.074;2022-12-08T10:01:03;95.65;;;33.10;;
21507;SDS011;10915;54.352;9.074;2022-12-08T10:03:29;79.75;;;29.13;;
21507;SDS011;10915;54.352;9.074;2022-12-08T10:14:27;102.13;;;31.60;;
21507;SDS011;10915;54.352;9.074;2022-12-08T10:22:39;119.93;;;31.03;;
21507;SDS011;10915;54.352;9.074;2022-12-08T10:25:09;67.43;;;25.07;;
21507;SDS011;10915;54.352;9.074;2022-12-08T10:27:35;102.63;;;29.17;;
21507;SDS011;10915;54.352;9.074;2022-12-08T10:30:05;90.87;;;27.63;;
21507;SDS011;10915;54.352;9.074;2022-12-08T10:32:38;98.90;;;29.27;;
21507;SDS011;10915;54.352;9.074;2022-12-08T10:35:08;161.47;;;34.83;;
21507;SDS011;10915;54.352;9.074;2022-12-08T10:37:37;123.53;;;30.93;;
21507;SDS011;10915;54.352;9.074;2022-12-08T10:42:41;145.47;;;36.67;;
21507;SDS011;10915;54.352;9.074;2022-12-08T10:47:55;113.75;;;34.70;;
21507;SDS011;10915;54.352;9.074;2022-12-08T10:50:22;256.90;;;35.57;;
21507;SDS011;10915;54.352;9.074;2022-12-08T10:55:42;103.40;;;33.23;;
21507;SDS011;10915;54.352;9.074;2022-12-08T11:00:53;237.90;;;42.77;;
21507;SDS011;10915;54.352;9.074;2022-12-08T11:03:29;299.47;;;38.33;;
21507;SDS011;10915;54.352;9.074;2022-12-08T11:06:00;178.87;;;40.40;;
21507;SDS011;10915;54.352;9.074;2022-12-08T11:08:45;304.57;;;40.27;;
21507;SDS011;10915;54.352;9.074;2022-12-08T11:11:19;395.10;;;51.03;;
21507;SDS011;10915;54.352;9.074;2022-12-08T11:13:46;361.77;;;44.57;;
21507;SDS011;10915;54.352;9.074;2022-12-08T11:16:15;404.53;;;50.67;;
21507;SDS011;10915;54.352;9.074;2022-12-08T11:18:43;396.90;;;47.60;;
21507;SDS011;10915;54.352;9.074;2022-12-08T11:21:16;509.67;;;59.53;;
21507;SDS011;10915;54.352;9.074;2022-12-08T11:23:47;326.93;;;46.17;;
21507;SDS011;10915;54.352;9.074;2022-12-08T11:26:31;164.00;;;32.80;;
21507;SDS011;10915;54.352;9.074;2022-12-08T11:28:59;174.27;;;31.97;;
21507;SDS011;10915;54.352;9.074;2022-12-08T11:31:29;342.67;;;47.87;;
21507;SDS011;10915;54.352;9.074;2022-12-08T11:34:05;279.43;;;25.57;;
21507;SDS011;10915;54.352;9.074;2022-12-08T11:36:34;240.80;;;16.97;;
21507;SDS011;10915;54.352;9.074;2022-12-08T11:39:02;156.00;;;15.63;;
21507;SDS011;10915;54.352;9.074;2022-12-08T11:41:30;167.43;;;15.83;;
21507;SDS011;10915;54.352;9.074;2022-12-08T11:46:35;129.73;;;34.33;;
21507;SDS011;10915;54.352;9.074;2022-12-08T11:49:11;137.10;;;36.30;;
21507;SDS011;10915;54.352;9.074;2022-12-08T11:54:16;211.33;;;20.50;;
21507;SDS011;10915;54.352;9.074;2022-12-08T11:56:58;191.83;;;35.60;;
21507;SDS011;10915;54.352;9.074;2022-12-08T12:02:12;235.20;;;40.57;;
21507;SDS011;10915;54.352;9.074;2022-12-08T12:04:51;205.13;;;39.87;;
21507;SDS011;10915;54.352;9.074;2022-12-08T12:10:45;132.93;;;28.40;;
21507;SDS011;10915;54.352;9.074;2022-12-08T12:13:41;189.10;;;16.73;;
21507;SDS011;10915;54.352;9.074;2022-12-08T12:19:16;148.77;;;14.87;;
21507;SDS011;10915;54.352;9.074;2022-12-08T12:21:45;173.40;;;14.93;;
21507;SDS011;10915;54.352;9.074;2022-12-08T12:24:19;201.13;;;14.57;;
21507;SDS011;10915;54.352;9.074;2022-12-08T12:29:21;197.30;;;18.30;;
21507;SDS011;10915;54.352;9.074;2022-12-08T12:31:54;86.63;;;25.07;;
21507;SDS011;10915;54.352;9.074;2022-12-08T12:34:32;108.20;;;28.17;;
21507;SDS011;10915;54.352;9.074;2022-12-08T12:37:15;49.47;;;21.63;;
21507;SDS011;10915;54.352;9.074;2022-12-08T12:39:57;74.43;;;23.70;;
21507;SDS011;10915;54.352;9.074;2022-12-08T12:45:30;181.53;;;36.03;;
21507;SDS011;10915;54.352;9.074;2022-12-08T12:52:52;235.90;;;40.20;;
21507;SDS011;10915;54.352;9.074;2022-12-08T12:55:19;142.17;;;34.53;;
21507;SDS011;10915;54.352;9.074;2022-12-08T12:57:50;88.70;;;25.03;;
21507;SDS011;10915;54.352;9.074;2022-12-08T13:00:24;56.30;;;22.33;;
21507;SDS011;10915;54.352;9.074;2022-12-08T13:02:52;140.03;;;31.93;;
21507;SDS011;10915;54.352;9.074;2022-12-08T13:07:58;52.70;;;21.97;;
21507;SDS011;10915;54.352;9.074;2022-12-08T13:10:31;45.17;;;21.00;;
21507;SDS011;10915;54.352;9.074;2022-12-08T13:18:40;113.13;;;25.93;;
21507;SDS011;10915;54.352;9.074;2022-12-08T13:21:19;132.17;;;32.77;;
21507;SDS011;10915;54.352;9.074;2022-12-08T13:26:35;51.77;;;23.27;;
21507;SDS011;10915;54.352;9.074;2022-12-08T13:29:26;44.80;;;20.83;;
21507;SDS011;10915;54.352;9.074;2022-12-08T13:34:42;75.10;;;26.00;;
21507;SDS011;10915;54.352;9.074;2022-12-08T13:47:14;132.17;;;32.67;;
21507;SDS011;10915;54.352;9.074;2022-12-08T13:49:53;147.57;;;30.23;;
21507;SDS011;10915;54.352;9.074;2022-12-08T13:52:33;225.33;;;38.57;;
21507;SDS011;10915;54.352;9.074;2022-12-08T13:55:20;291.37;;;43.57;;
21507;SDS011;10915;54.352;9.074;2022-12-08T13:57:53;38.73;;;19.57;;
21507;SDS011;10915;54.352;9.074;2022-12-08T14:00:20;43.90;;;20.50;;
21507;SDS011;10915;54.352;9.074;2022-12-08T14:02:47;44.37;;;20.63;;
21507;SDS011;10915;54.352;9.074;2022-12-08T14:05:15;49.70;;;23.03;;
21507;SDS011;10915;54.352;9.074;2022-12-08T14:07:44;39.77;;;20.07;;
21507;SDS011;10915;54.352;9.074;2022-12-08T14:10:20;49.00;;;19.83;;
21507;SDS011;10915;54.352;9.074;2022-12-08T14:12:56;83.57;;;26.88;;
21507;SDS011;10915;54.352;9.074;2022-12-08T14:15:25;136.33;;;28.57;;
21507;SDS011;10915;54.352;9.074;2022-12-08T14:17:52;148.40;;;31.60;;
21507;SDS011;10915;54.352;9.074;2022-12-08T14:20:22;115.37;;;29.23;;
21507;SDS011;10915;54.352;9.074;2022-12-08T14:22:51;103.53;;;14.23;;
21507;SDS011;10915;54.352;9.074;2022-12-08T14:25:17;75.33;;;11.43;;
21507;SDS011;10915;54.352;9.074;2022-12-08T14:27:44;78.43;;;23.47;;
21507;SDS011;10915;54.352;9.074;2022-12-08T14:32:43;142.57;;;35.07;;
21507;SDS011;10915;54.352;9.074;2022-12-08T14:38:03;174.93;;;37.13;;
21507;SDS011;10915;54.352;9.074;2022-12-08T14:40:44;210.87;;;42.33;;
21507;SDS011;10915;54.352;9.074;2022-12-08T14:43:23;178.53;;;37.03;;
21507;SDS011;10915;54.352;9.074;2022-12-08T14:45:51;85.57;;;15.10;;
21507;SDS011;10915;54.352;9.074;2022-12-08T14:56:19;38.90;;;7.33;;
21507;SDS011;10915;54.352;9.074;2022-12-08T15:01:53;29.47;;;9.63;;
21507;SDS011;10915;54.352;9.074;2022-12-08T15:04:40;51.97;;;25.87;;
21507;SDS011;10915;54.352;9.074;2022-12-08T15:07:14;45.13;;;22.10;;
21507;SDS011;10915;54.352;9.074;2022-12-08T15:09:43;47.97;;;24.30;;
21507;SDS011;10915;54.352;9.074;2022-12-08T15:14:38;71.73;;;29.67;;
21507;SDS011;10915;54.352;9.074;2022-12-08T15:23:18;57.80;;;26.37;;
21507;SDS011;10915;54.352;9.074;2022-12-08T15:25:44;71.97;;;30.37;;
21507;SDS011;10915;54.352;9.074;2022-12-08T15:28:11;88.33;;;32.17;;
21507;SDS011;10915;54.352;9.074;2022-12-08T15:30:39;54.50;;;26.83;;
21507;SDS011;10915;54.352;9.074;2022-12-08T15:33:05;61.83;;;28.33;;
21507;SDS011;10915;54.352;9.074;2022-12-08T15:35:31;53.63;;;26.50;;
21507;SDS011;10915;54.352;9.074;2022-12-08T15:37:57;58.47;;;28.50;;
21507;SDS011;10915;54.352;9.074;2022-12-08T15:40:22;105.80;;;34.40;;
21507;SDS011;10915;54.352;9.074;2022-12-08T15:42:50;54.23;;;25.83;;
21507;SDS011;10915;54.352;9.074;2022-12-08T15:45:16;74.57;;;32.13;;
21507;SDS011;10915;54.352;9.074;2022-12-08T15:47:43;47.10;;;22.60;;
21507;SDS011;10915;54.352;9.074;2022-12-08T15:50:14;59.87;;;28.03;;
21507;SDS011;10915;54.352;9.074;2022-12-08T15:52:41;52.60;;;24.60;;
21507;SDS011;10915;54.352;9.074;2022-12-08T15:55:10;49.87;;;23.70;;
21507;SDS011;10915;54.352;9.074;2022-12-08T16:02:51;52.50;;;27.20;;
21507;SDS011;10915;54.352;9.074;2022-12-08T16:05:17;50.60;;;25.93;;
21507;SDS011;10915;54.352;9.074;2022-12-08T16:07:43;56.23;;;25.07;;
21507;SDS011;10915;54.352;9.074;2022-12-08T16:10:13;51.27;;;25.93;;
21507;SDS011;10915;54.352;9.074;2022-12-08T16:12:44;52.57;;;25.77;;
21507;SDS011;10915;54.352;9.074;2022-12-08T16:15:29;60.57;;;31.50;;
21507;SDS011;10915;54.352;9.074;2022-12-08T16:17:56;61.50;;;32.20;;
21507;SDS011;10915;54.352;9.074;2022-12-08T16:20:22;56.03;;;31.20;;
21507;SDS011;10915;54.352;9.074;2022-12-08T16:22:48;52.17;;;27.30;;
21507;SDS011;10915;54.352;9.074;2022-12-08T16:25:14;57.90;;;29.33;;
21507;SDS011;10915;54.352;9.074;2022-12-08T16:27:40;54.87;;;27.93;;
21507;SDS011;10915;54.352;9.074;2022-12-08T16:30:07;61.30;;;29.60;;
21507;SDS011;10915;54.352;9.074;2022-12-08T16:32:37;62.00;;;30.73;;
21507;SDS011;10915;54.352;9.074;2022-12-08T16:35:03;61.00;;;30.67;;
21507;SDS011;10915;54.352;9.074;2022-12-08T16:37:29;57.10;;;29.53;;
21507;SDS011;10915;54.352;9.074;2022-12-08T16:39:55;64.47;;;34.43;;
21507;SDS011;10915;54.352;9.074;2022-12-08T16:42:23;60.07;;;30.60;;
21507;SDS011;10915;54.352;9.074;2022-12-08T16:47:36;63.20;;;33.70;;
21507;SDS011;10915;54.352;9.074;2022-12-08T16:50:06;42.73;;;17.63;;
21507;SDS011;10915;54.352;9.074;2022-12-08T16:52:35;64.30;;;32.93;;
21507;SDS011;10915;54.352;9.074;2022-12-08T16:55:01;62.97;;;32.50;;
21507;SDS011;10915;54.352;9.074;2022-12-08T16:57:30;60.43;;;29.57;;
21507;SDS011;10915;54.352;9.074;2022-12-08T16:59:56;58.27;;;29.30;;
21507;SDS011;10915;54.352;9.074;2022-12-08T17:02:22;63.60;;;34.70;;
21507;SDS011;10915;54.352;9.074;2022-12-08T17:04:47;65.67;;;30.97;;
21507;SDS011;10915;54.352;9.074;2022-12-08T17:07:13;56.57;;;29.97;;
21507;SDS011;10915;54.352;9.074;2022-12-08T17:09:39;49.80;;;27.07;;